sensor_id;sensor_type;location;lat;lon;timestamp;pressure;altitude;pressure_sealevel;temperature;humidity
77159;BME280;66129;45.890;13.714;2023-12-20T00:02:23;101224.25;;;0.03;100.00
77159;BME280;66129;45.890;13.714;2023-12-20T00:04:48;101220.38;;;-0.16;100.00
77159;BME280;66129;45.890;13.714;2023-12-20T00:07:14;101217.94;;;-0.03;100.00
77159;BME280;66129;45.890;13.714;2023-12-20T00:09:39;101210.53;;;-0.13;100.00
77159;BME280;66129;45.890;13.714;2023-12-20T00:12:05;101208.31;;;-0.08;100.00
77159;BME280;66129;45.890;13.714;2023-12-20T00:14:30;101208.31;;;-0.08;100.00
77159;BME280;66129;45.890;13.714;2023-12-20T00:16:56;101195.84;;;-0.07;100.00
77159;BME280;66129;45.890;13.714;2023-12-20T00:19:21;101192.13;;;-0.12;100.00
77159;BME280;66129;45.890;13.714;2023-12-20T00:21:47;101191.50;;;-0.21;100.00
77159;BME280;66129;45.890;13.714;2023-12-20T00:24:12;101187.38;;;-0.32;100.00
77159;BME280;66129;45.890;13.714;2023-12-20T00:26:38;101184.22;;;-0.41;100.00
77159;BME280;66129;45.890;13.714;2023-12-20T00:29:03;101195.72;;;-0.33;100.00
77159;BME280;66129;45.890;13.714;2023-12-20T00:31:28;101186.19;;;-0.37;100.00
77159;BME280;66129;45.890;13.714;2023-12-20T00:33:54;101192.25;;;-0.46;100.00
77159;BME280;66129;45.890;13.714;2023-12-20T00:36:20;101187.97;;;-0.47;100.00
77159;BME280;66129;45.890;13.714;2023-12-20T00:38:46;101183.81;;;-0.47;100.00
77159;BME280;66129;45.890;13.714;2023-12-20T00:41:11;101182.06;;;-0.48;100.00
77159;BME280;66129;45.890;13.714;2023-12-20T00:43:36;101178.56;;;-0.50;100.00
77159;BME280;66129;45.890;13.714;2023-12-20T00:46:02;101178.97;;;-0.44;100.00
77159;BME280;66129;45.890;13.714;2023-12-20T00:48:28;101172.50;;;-0.40;100.00
77159;BME280;66129;45.890;13.714;2023-12-20T00:50:55;101171.38;;;-0.32;100.00
77159;BME280;66129;45.890;13.714;2023-12-20T00:53:21;101173.06;;;-0.44;100.00
77159;BME280;66129;45.890;13.714;2023-12-20T00:55:46;101171.97;;;-0.48;100.00
77159;BME280;66129;45.890;13.714;2023-12-20T00:58:11;101157.00;;;-0.58;100.00
77159;BME280;66129;45.890;13.714;2023-12-20T01:00:37;101162.25;;;-0.55;100.00
77159;BME280;66129;45.890;13.714;2023-12-20T01:03:03;101171.00;;;-0.50;100.00
77159;BME280;66129;45.890;13.714;2023-12-20T01:05:29;101163.78;;;-0.45;100.00
77159;BME280;66129;45.890;13.714;2023-12-20T01:07:54;101165.19;;;-0.49;100.00
77159;BME280;66129;45.890;13.714;2023-12-20T01:10:20;101159.19;;;-0.51;100.00
77159;BME280;66129;45.890;13.714;2023-12-20T01:12:45;101151.03;;;-0.35;100.00
77159;BME280;66129;45.890;13.714;2023-12-20T01:15:11;101144.47;;;-0.33;100.00
77159;BME280;66129;45.890;13.714;2023-12-20T01:17:36;101147.50;;;-0.26;100.00
77159;BME280;66129;45.890;13.714;2023-12-20T01:20:02;101133.53;;;-0.34;100.00
77159;BME280;66129;45.890;13.714;2023-12-20T01:22:27;101140.31;;;-0.33;100.00
77159;BME280;66129;45.890;13.714;2023-12-20T01:24:53;101131.41;;;-0.52;100.00
77159;BME280;66129;45.890;13.714;2023-12-20T01:27:18;101130.00;;;-0.60;100.00
77159;BME280;66129;45.890;13.714;2023-12-20T01:29:44;101133.63;;;-0.68;100.00
77159;BME280;66129;45.890;13.714;2023-12-20T01:32:09;101128.84;;;-0.77;100.00
77159;BME280;66129;45.890;13.714;2023-12-20T01:34:35;101131.56;;;-0.74;100.00
77159;BME280;66129;45.890;13.714;2023-12-20T01:37:01;101130.81;;;-0.73;100.00
77159;BME280;66129;45.890;13.714;2023-12-20T01:39:28;101131.13;;;-0.80;100.00
77159;BME280;66129;45.890;13.714;2023-12-20T01:41:53;101128.53;;;-0.81;100.00
77159;BME280;66129;45.890;13.714;2023-12-20T01:44:19;101119.00;;;-0.85;100.00
77159;BME280;66129;45.890;13.714;2023-12-20T01:46:45;101116.59;;;-0.84;100.00
77159;BME280;66129;45.890;13.714;2023-12-20T01:49:11;101123.25;;;-0.73;100.00
77159;BME280;66129;45.890;13.714;2023-12-20T01:51:37;101102.13;;;-0.75;100.00
77159;BME280;66129;45.890;13.714;2023-12-20T01:54:02;101109.00;;;-0.72;100.00
77159;BME280;66129;45.890;13.714;2023-12-20T01:56:29;101105.09;;;-0.69;100.00
77159;BME280;66129;45.890;13.714;2023-12-20T01:58:56;101099.50;;;-0.65;100.00
77159;BME280;66129;45.890;13.714;2023-12-20T02:01:22;101087.59;;;-0.79;100.00
77159;BME280;66129;45.890;13.714;2023-12-20T02:03:47;101086.69;;;-0.68;100.00
77159;BME280;66129;45.890;13.714;2023-12-20T02:06:13;101079.88;;;-0.57;100.00
77159;BME280;66129;45.890;13.714;2023-12-20T02:08:39;101080.94;;;-0.54;100.00
77159;BME280;66129;45.890;13.714;2023-12-20T02:11:05;101084.78;;;-0.59;100.00
77159;BME280;66129;45.890;13.714;2023-12-20T02:13:31;101073.84;;;-0.59;100.00
77159;BME280;66129;45.890;13.714;2023-12-20T02:15:56;101076.94;;;-0.63;100.00
77159;BME280;66129;45.890;13.714;2023-12-20T02:18:22;101078.00;;;-0.60;100.00
77159;BME280;66129;45.890;13.714;2023-12-20T02:20:48;101085.16;;;-0.66;100.00
77159;BME280;66129;45.890;13.714;2023-12-20T02:23:13;101080.38;;;-0.86;100.00
77159;BME280;66129;45.890;13.714;2023-12-20T02:25:39;101082.50;;;-0.92;100.00
77159;BME280;66129;45.890;13.714;2023-12-20T02:28:05;101078.25;;;-0.93;100.00
77159;BME280;66129;45.890;13.714;2023-12-20T02:30:31;101086.41;;;-0.84;100.00
77159;BME280;66129;45.890;13.714;2023-12-20T02:32:56;101083.66;;;-0.87;100.00
77159;BME280;66129;45.890;13.714;2023-12-20T02:35:25;101077.03;;;-0.98;100.00
77159;BME280;66129;45.890;13.714;2023-12-20T02:37:50;101079.34;;;-1.01;100.00
77159;BME280;66129;45.890;13.714;2023-12-20T02:40:15;101077.28;;;-1.17;100.00
77159;BME280;66129;45.890;13.714;2023-12-20T02:42:41;101072.81;;;-1.10;100.00
77159;BME280;66129;45.890;13.714;2023-12-20T02:45:07;101060.25;;;-1.21;100.00
77159;BME280;66129;45.890;13.714;2023-12-20T02:47:32;101061.78;;;-1.23;100.00
77159;BME280;66129;45.890;13.714;2023-12-20T02:49:58;101058.69;;;-1.19;100.00
77159;BME280;66129;45.890;13.714;2023-12-20T02:52:24;101053.03;;;-1.17;100.00
77159;BME280;66129;45.890;13.714;2023-12-20T02:54:49;101055.50;;;-1.06;100.00
77159;BME280;66129;45.890;13.714;2023-12-20T02:57:15;101041.66;;;-0.88;100.00
77159;BME280;66129;45.890;13.714;2023-12-20T02:59:40;101029.31;;;-0.85;100.00
77159;BME280;66129;45.890;13.714;2023-12-20T03:02:06;101034.13;;;-0.88;100.00
77159;BME280;66129;45.890;13.714;2023-12-20T03:04:31;101032.59;;;-0.86;100.00
77159;BME280;66129;45.890;13.714;2023-12-20T03:06:57;101021.59;;;-0.99;100.00
77159;BME280;66129;45.890;13.714;2023-12-20T03:09:22;101015.41;;;-1.15;100.00
77159;BME280;66129;45.890;13.714;2023-12-20T03:11:48;101027.22;;;-1.14;100.00
77159;BME280;66129;45.890;13.714;2023-12-20T03:14:13;101012.06;;;-1.27;100.00
77159;BME280;66129;45.890;13.714;2023-12-20T03:16:38;101021.34;;;-1.26;100.00
77159;BME280;66129;45.890;13.714;2023-12-20T03:19:04;101019.06;;;-1.35;100.00
77159;BME280;66129;45.890;13.714;2023-12-20T03:21:29;101020.03;;;-1.33;100.00
77159;BME280;66129;45.890;13.714;2023-12-20T03:23:55;101016.19;;;-1.28;100.00
77159;BME280;66129;45.890;13.714;2023-12-20T03:26:20;101016.38;;;-1.13;100.00
77159;BME280;66129;45.890;13.714;2023-12-20T03:28:47;101015.75;;;-1.11;100.00
77159;BME280;66129;45.890;13.714;2023-12-20T03:31:13;101017.53;;;-1.21;100.00
77159;BME280;66129;45.890;13.714;2023-12-20T03:33:39;101017.94;;;-1.27;100.00
77159;BME280;66129;45.890;13.714;2023-12-20T03:36:04;101011.81;;;-1.19;100.00
77159;BME280;66129;45.890;13.714;2023-12-20T03:38:30;101017.69;;;-1.18;100.00
77159;BME280;66129;45.890;13.714;2023-12-20T03:40:55;101014.53;;;-1.16;100.00
77159;BME280;66129;45.890;13.714;2023-12-20T03:43:21;101009.31;;;-1.19;100.00
77159;BME280;66129;45.890;13.714;2023-12-20T03:45:46;101012.47;;;-1.10;100.00
77159;BME280;66129;45.890;13.714;2023-12-20T03:48:12;100999.56;;;-1.14;100.00
77159;BME280;66129;45.890;13.714;2023-12-20T03:50:37;100993.66;;;-1.15;100.00
77159;BME280;66129;45.890;13.714;2023-12-20T03:53:03;100980.88;;;-1.18;100.00
77159;BME280;66129;45.890;13.714;2023-12-20T03:55:29;100982.16;;;-1.12;100.00
77159;BME280;66129;45.890;13.714;2023-12-20T03:57:54;100982.94;;;-1.13;100.00
77159;BME280;66129;45.890;13.714;2023-12-20T04:00:20;100983.47;;;-1.05;100.00
77159;BME280;66129;45.890;13.714;2023-12-20T04:02:45;100981.06;;;-1.04;100.00
77159;BME280;66129;45.890;13.714;2023-12-20T04:05:11;100978.44;;;-1.05;100.00
77159;BME280;66129;45.890;13.714;2023-12-20T04:07:36;100977.03;;;-1.13;100.00
77159;BME280;66129;45.890;13.714;2023-12-20T04:10:02;100975.28;;;-1.14;100.00
77159;BME280;66129;45.890;13.714;2023-12-20T04:12:29;100975.94;;;-1.16;100.00
77159;BME280;66129;45.890;13.714;2023-12-20T04:14:54;100971.25;;;-1.12;100.00
77159;BME280;66129;45.890;13.714;2023-12-20T04:17:20;100969.50;;;-1.13;100.00
77159;BME280;66129;45.890;13.714;2023-12-20T04:19:48;100974.97;;;-1.18;100.00
77159;BME280;66129;45.890;13.714;2023-12-20T04:22:13;100959.47;;;-1.24;100.00
77159;BME280;66129;45.890;13.714;2023-12-20T04:24:39;100974.00;;;-1.20;100.00
77159;BME280;66129;45.890;13.714;2023-12-20T04:27:04;100957.81;;;-1.24;100.00
77159;BME280;66129;45.890;13.714;2023-12-20T04:29:30;100956.41;;;-1.20;100.00
77159;BME280;66129;45.890;13.714;2023-12-20T04:31:55;100954.66;;;-1.21;100.00
77159;BME280;66129;45.890;13.714;2023-12-20T04:34:22;100953.09;;;-1.19;100.00
77159;BME280;66129;45.890;13.714;2023-12-20T04:36:48;100945.38;;;-1.22;100.00
77159;BME280;66129;45.890;13.714;2023-12-20T04:39:13;100945.47;;;-1.21;100.00
77159;BME280;66129;45.890;13.714;2023-12-20T04:41:40;100937.59;;;-1.14;100.00
77159;BME280;66129;45.890;13.714;2023-12-20T04:44:05;100930.34;;;-1.10;100.00
77159;BME280;66129;45.890;13.714;2023-12-20T04:46:31;100925.81;;;-1.02;100.00
77159;BME280;66129;45.890;13.714;2023-12-20T04:48:57;100925.00;;;-1.14;100.00
77159;BME280;66129;45.890;13.714;2023-12-20T04:51:22;100926.03;;;-1.23;100.00
77159;BME280;66129;45.890;13.714;2023-12-20T04:53:48;100909.72;;;-1.17;100.00
77159;BME280;66129;45.890;13.714;2023-12-20T04:56:13;100908.38;;;-1.12;100.00
77159;BME280;66129;45.890;13.714;2023-12-20T04:58:39;100910.06;;;-1.24;100.00
77159;BME280;66129;45.890;13.714;2023-12-20T05:01:06;100909.00;;;-1.27;100.00
77159;BME280;66129;45.890;13.714;2023-12-20T05:03:31;100892.59;;;-1.34;100.00
77159;BME280;66129;45.890;13.714;2023-12-20T05:05:57;100896.56;;;-1.37;100.00
77159;BME280;66129;45.890;13.714;2023-12-20T05:08:22;100890.47;;;-1.41;100.00
77159;BME280;66129;45.890;13.714;2023-12-20T05:10:48;100879.66;;;-1.40;100.00
77159;BME280;66129;45.890;13.714;2023-12-20T05:13:13;100873.25;;;-1.35;100.00
77159;BME280;66129;45.890;13.714;2023-12-20T05:15:39;100874.72;;;-1.38;100.00
77159;BME280;66129;45.890;13.714;2023-12-20T05:18:04;100874.50;;;-1.41;100.00
77159;BME280;66129;45.890;13.714;2023-12-20T05:20:30;100879.22;;;-1.46;100.00
77159;BME280;66129;45.890;13.714;2023-12-20T05:22:55;100882.38;;;-1.48;100.00
77159;BME280;66129;45.890;13.714;2023-12-20T05:25:21;100882.84;;;-1.54;100.00
77159;BME280;66129;45.890;13.714;2023-12-20T05:27:47;100889.28;;;-1.46;100.00
77159;BME280;66129;45.890;13.714;2023-12-20T05:30:12;100881.63;;;-1.47;100.00
77159;BME280;66129;45.890;13.714;2023-12-20T05:32:39;100898.38;;;-1.59;100.00
77159;BME280;66129;45.890;13.714;2023-12-20T05:35:04;100896.78;;;-1.82;100.00
77159;BME280;66129;45.890;13.714;2023-12-20T05:37:30;100897.81;;;-1.91;100.00
77159;BME280;66129;45.890;13.714;2023-12-20T05:39:55;100916.38;;;-2.01;100.00
77159;BME280;66129;45.890;13.714;2023-12-20T05:42:21;100918.66;;;-2.04;100.00
77159;BME280;66129;45.890;13.714;2023-12-20T05:44:46;100917.47;;;-1.97;100.00
77159;BME280;66129;45.890;13.714;2023-12-20T05:47:11;100908.19;;;-1.98;100.00
77159;BME280;66129;45.890;13.714;2023-12-20T05:49:37;100918.66;;;-1.92;100.00
77159;BME280;66129;45.890;13.714;2023-12-20T05:52:03;100926.41;;;-1.89;100.00
77159;BME280;66129;45.890;13.714;2023-12-20T05:54:28;100924.75;;;-1.89;100.00
77159;BME280;66129;45.890;13.714;2023-12-20T05:56:53;100933.41;;;-1.85;100.00
77159;BME280;66129;45.890;13.714;2023-12-20T05:59:19;100935.22;;;-1.83;100.00
77159;BME280;66129;45.890;13.714;2023-12-20T06:01:44;100924.78;;;-2.00;100.00
77159;BME280;66129;45.890;13.714;2023-12-20T06:04:10;100928.38;;;-2.08;100.00
77159;BME280;66129;45.890;13.714;2023-12-20T06:06:41;100930.47;;;-2.14;100.00
77159;BME280;66129;45.890;13.714;2023-12-20T06:09:07;100921.50;;;-2.22;100.00
77159;BME280;66129;45.890;13.714;2023-12-20T06:11:32;100929.81;;;-2.23;100.00
77159;BME280;66129;45.890;13.714;2023-12-20T06:13:58;100926.53;;;-2.22;100.00
77159;BME280;66129;45.890;13.714;2023-12-20T06:16:23;100906.75;;;-2.06;100.00
77159;BME280;66129;45.890;13.714;2023-12-20T06:18:49;100905.63;;;-1.75;100.00
77159;BME280;66129;45.890;13.714;2023-12-20T06:21:14;100898.25;;;-1.61;100.00
77159;BME280;66129;45.890;13.714;2023-12-20T06:23:40;100894.06;;;-1.37;100.00
77159;BME280;66129;45.890;13.714;2023-12-20T06:26:06;100888.50;;;-1.45;100.00
77159;BME280;66129;45.890;13.714;2023-12-20T06:28:31;100890.69;;;-1.49;100.00
77159;BME280;66129;45.890;13.714;2023-12-20T06:30:56;100883.94;;;-1.50;100.00
77159;BME280;66129;45.890;13.714;2023-12-20T06:33:22;100883.06;;;-1.51;100.00
77159;BME280;66129;45.890;13.714;2023-12-20T06:35:48;100886.66;;;-1.47;100.00
77159;BME280;66129;45.890;13.714;2023-12-20T06:38:14;100873.00;;;-1.51;100.00
77159;BME280;66129;45.890;13.714;2023-12-20T06:40:40;100886.41;;;-1.39;100.00
77159;BME280;66129;45.890;13.714;2023-12-20T06:43:06;100898.53;;;-1.33;100.00
77159;BME280;66129;45.890;13.714;2023-12-20T06:45:32;100898.94;;;-1.27;100.00
77159;BME280;66129;45.890;13.714;2023-12-20T06:47:58;100902.47;;;-1.13;100.00
77159;BME280;66129;45.890;13.714;2023-12-20T06:50:23;100900.56;;;-1.04;100.00
77159;BME280;66129;45.890;13.714;2023-12-20T06:52:49;100895.00;;;-0.87;100.00
77159;BME280;66129;45.890;13.714;2023-12-20T06:55:15;100892.31;;;-0.77;100.00
77159;BME280;66129;45.890;13.714;2023-12-20T06:57:40;100887.41;;;-0.62;100.00
77159;BME280;66129;45.890;13.714;2023-12-20T07:00:06;100869.50;;;-0.54;100.00
77159;BME280;66129;45.890;13.714;2023-12-20T07:02:33;100874.56;;;-0.41;100.00
77159;BME280;66129;45.890;13.714;2023-12-20T07:04:59;100866.13;;;-0.41;100.00
77159;BME280;66129;45.890;13.714;2023-12-20T07:07:25;100858.00;;;-0.37;100.00
77159;BME280;66129;45.890;13.714;2023-12-20T07:09:51;100864.31;;;-0.31;100.00
77159;BME280;66129;45.890;13.714;2023-12-20T07:12:16;100877.19;;;-0.26;100.00
77159;BME280;66129;45.890;13.714;2023-12-20T07:14:45;100877.28;;;-0.25;100.00
77159;BME280;66129;45.890;13.714;2023-12-20T07:17:10;100891.81;;;-0.21;100.00
77159;BME280;66129;45.890;13.714;2023-12-20T07:19:38;100901.50;;;-0.14;100.00
77159;BME280;66129;45.890;13.714;2023-12-20T07:22:05;100906.34;;;-0.04;100.00
77159;BME280;66129;45.890;13.714;2023-12-20T07:24:30;100911.66;;;0.00;100.00
77159;BME280;66129;45.890;13.714;2023-12-20T07:26:56;100918.91;;;0.09;100.00
77159;BME280;66129;45.890;13.714;2023-12-20T07:29:22;100897.88;;;0.21;100.00
77159;BME280;66129;45.890;13.714;2023-12-20T07:31:47;100897.09;;;0.35;100.00
77159;BME280;66129;45.890;13.714;2023-12-20T07:34:12;100885.25;;;0.34;100.00
77159;BME280;66129;45.890;13.714;2023-12-20T07:36:38;100893.72;;;0.49;100.00
77159;BME280;66129;45.890;13.714;2023-12-20T07:39:03;100890.44;;;0.50;100.00
77159;BME280;66129;45.890;13.714;2023-12-20T07:41:29;100896.81;;;0.58;100.00
77159;BME280;66129;45.890;13.714;2023-12-20T07:43:54;100899.94;;;0.54;100.00
77159;BME280;66129;45.890;13.714;2023-12-20T07:46:21;100898.47;;;0.58;100.00
77159;BME280;66129;45.890;13.714;2023-12-20T07:48:49;100901.53;;;0.67;100.00
77159;BME280;66129;45.890;13.714;2023-12-20T07:51:15;100907.53;;;0.69;100.00
77159;BME280;66129;45.890;13.714;2023-12-20T07:53:41;100918.00;;;0.75;100.00
77159;BME280;66129;45.890;13.714;2023-12-20T07:56:17;100912.59;;;0.96;100.00
77159;BME280;66129;45.890;13.714;2023-12-20T07:58:44;100919.66;;;1.02;100.00
77159;BME280;66129;45.890;13.714;2023-12-20T08:01:10;100916.53;;;1.06;100.00
77159;BME280;66129;45.890;13.714;2023-12-20T08:03:36;100917.25;;;1.17;100.00
77159;BME280;66129;45.890;13.714;2023-12-20T08:06:02;100931.63;;;1.18;100.00
77159;BME280;66129;45.890;13.714;2023-12-20T08:08:28;100922.81;;;1.26;100.00
77159;BME280;66129;45.890;13.714;2023-12-20T08:10:53;100930.31;;;1.25;100.00
77159;BME280;66129;45.890;13.714;2023-12-20T08:13:19;100931.78;;;1.21;100.00
77159;BME280;66129;45.890;13.714;2023-12-20T08:15:44;100933.50;;;1.22;100.00
77159;BME280;66129;45.890;13.714;2023-12-20T08:18:09;100938.50;;;1.35;100.00
77159;BME280;66129;45.890;13.714;2023-12-20T08:20:35;100937.91;;;1.39;100.00
77159;BME280;66129;45.890;13.714;2023-12-20T08:23:00;100939.91;;;1.45;100.00
77159;BME280;66129;45.890;13.714;2023-12-20T08:25:26;100948.44;;;1.47;100.00
77159;BME280;66129;45.890;13.714;2023-12-20T08:27:52;100942.34;;;1.43;100.00
77159;BME280;66129;45.890;13.714;2023-12-20T08:30:18;100942.97;;;1.39;100.00
77159;BME280;66129;45.890;13.714;2023-12-20T08:32:49;100949.47;;;1.50;100.00
77159;BME280;66129;45.890;13.714;2023-12-20T08:35:15;100948.19;;;1.57;100.00
77159;BME280;66129;45.890;13.714;2023-12-20T08:37:40;100937.38;;;1.59;100.00
77159;BME280;66129;45.890;13.714;2023-12-20T08:40:06;100933.41;;;1.77;100.00
77159;BME280;66129;45.890;13.714;2023-12-20T08:42:32;100930.09;;;1.78;100.00
77159;BME280;66129;45.890;13.714;2023-12-20T08:44:57;100935.28;;;1.81;100.00
77159;BME280;66129;45.890;13.714;2023-12-20T08:47:26;100940.34;;;1.81;100.00
77159;BME280;66129;45.890;13.714;2023-12-20T08:49:52;100946.34;;;1.83;100.00
77159;BME280;66129;45.890;13.714;2023-12-20T08:52:22;100933.81;;;1.85;100.00
77159;BME280;66129;45.890;13.714;2023-12-20T08:54:48;100942.72;;;1.93;100.00
77159;BME280;66129;45.890;13.714;2023-12-20T08:57:14;100943.28;;;2.03;100.00
77159;BME280;66129;45.890;13.714;2023-12-20T08:59:39;100936.50;;;2.02;100.00
77159;BME280;66129;45.890;13.714;2023-12-20T09:02:05;100937.88;;;2.12;100.00
77159;BME280;66129;45.890;13.714;2023-12-20T09:04:30;100943.69;;;2.25;100.00
77159;BME280;66129;45.890;13.714;2023-12-20T09:06:59;100941.19;;;2.41;100.00
77159;BME280;66129;45.890;13.714;2023-12-20T09:09:25;100957.19;;;2.56;100.00
77159;BME280;66129;45.890;13.714;2023-12-20T09:11:50;100958.31;;;2.61;100.00
77159;BME280;66129;45.890;13.714;2023-12-20T09:14:16;100963.72;;;2.67;100.00
77159;BME280;66129;45.890;13.714;2023-12-20T09:16:42;100961.59;;;2.74;100.00
77159;BME280;66129;45.890;13.714;2023-12-20T09:19:07;100957.88;;;2.84;100.00
77159;BME280;66129;45.890;13.714;2023-12-20T09:21:33;100954.94;;;2.92;100.00
77159;BME280;66129;45.890;13.714;2023-12-20T09:23:58;100959.16;;;3.08;100.00
77159;BME280;66129;45.890;13.714;2023-12-20T09:26:24;100954.63;;;3.34;100.00
77159;BME280;66129;45.890;13.714;2023-12-20T09:28:49;100952.63;;;3.44;100.00
77159;BME280;66129;45.890;13.714;2023-12-20T09:31:15;100944.25;;;3.45;100.00
77159;BME280;66129;45.890;13.714;2023-12-20T09:33:40;100949.47;;;3.48;100.00
77159;BME280;66129;45.890;13.714;2023-12-20T09:36:06;100939.91;;;3.60;100.00
77159;BME280;66129;45.890;13.714;2023-12-20T09:38:31;100932.94;;;3.72;100.00
77159;BME280;66129;45.890;13.714;2023-12-20T09:40:57;100921.84;;;3.70;100.00
77159;BME280;66129;45.890;13.714;2023-12-20T09:43:24;100920.25;;;3.72;100.00
77159;BME280;66129;45.890;13.714;2023-12-20T09:45:53;100920.41;;;3.75;100.00
77159;BME280;66129;45.890;13.714;2023-12-20T09:48:19;100919.63;;;3.76;100.00
77159;BME280;66129;45.890;13.714;2023-12-20T09:50:45;100912.47;;;3.85;100.00
77159;BME280;66129;45.890;13.714;2023-12-20T09:53:15;100902.69;;;3.93;100.00
77159;BME280;66129;45.890;13.714;2023-12-20T09:55:41;100908.34;;;4.05;100.00
77159;BME280;66129;45.890;13.714;2023-12-20T09:58:07;100893.81;;;4.20;100.00
77159;BME280;66129;45.890;13.714;2023-12-20T10:00:34;100891.56;;;4.43;100.00
77159;BME280;66129;45.890;13.714;2023-12-20T10:03:00;100884.28;;;4.69;100.00
77159;BME280;66129;45.890;13.714;2023-12-20T10:05:28;100877.75;;;4.74;100.00
77159;BME280;66129;45.890;13.714;2023-12-20T10:07:54;100876.34;;;4.81;100.00
77159;BME280;66129;45.890;13.714;2023-12-20T10:10:20;100882.03;;;4.94;100.00
77159;BME280;66129;45.890;13.714;2023-12-20T10:13:05;100891.50;;;4.98;100.00
77159;BME280;66129;45.890;13.714;2023-12-20T10:15:33;100875.47;;;4.99;100.00
77159;BME280;66129;45.890;13.714;2023-12-20T10:17:58;100887.31;;;4.99;100.00
77159;BME280;66129;45.890;13.714;2023-12-20T10:20:24;100876.41;;;5.01;100.00
77159;BME280;66129;45.890;13.714;2023-12-20T10:22:51;100861.41;;;5.07;100.00
77159;BME280;66129;45.890;13.714;2023-12-20T10:25:19;100854.56;;;5.05;100.00
77159;BME280;66129;45.890;13.714;2023-12-20T10:27:45;100848.41;;;5.00;100.00
77159;BME280;66129;45.890;13.714;2023-12-20T10:30:11;100844.53;;;4.89;100.00
77159;BME280;66129;45.890;13.714;2023-12-20T10:32:37;100833.56;;;4.90;100.00
77159;BME280;66129;45.890;13.714;2023-12-20T10:35:02;100839.41;;;4.87;100.00
77159;BME280;66129;45.890;13.714;2023-12-20T10:37:28;100855.81;;;4.95;100.00
77159;BME280;66129;45.890;13.714;2023-12-20T10:39:54;100846.00;;;5.03;100.00
77159;BME280;66129;45.890;13.714;2023-12-20T10:42:24;100846.38;;;5.12;100.00
77159;BME280;66129;45.890;13.714;2023-12-20T10:44:51;100844.22;;;5.21;100.00
77159;BME280;66129;45.890;13.714;2023-12-20T10:47:19;100843.69;;;5.28;100.00
77159;BME280;66129;45.890;13.714;2023-12-20T10:49:45;100843.13;;;5.35;100.00
77159;BME280;66129;45.890;13.714;2023-12-20T10:52:12;100848.56;;;5.43;100.00
77159;BME280;66129;45.890;13.714;2023-12-20T10:54:40;100844.50;;;5.47;100.00
77159;BME280;66129;45.890;13.714;2023-12-20T10:57:06;100829.78;;;5.60;100.00
77159;BME280;66129;45.890;13.714;2023-12-20T10:59:33;100835.94;;;5.65;100.00
77159;BME280;66129;45.890;13.714;2023-12-20T11:02:02;100827.63;;;5.69;100.00
77159;BME280;66129;45.890;13.714;2023-12-20T11:07:22;100808.44;;;5.98;100.00
77159;BME280;66129;45.890;13.714;2023-12-20T11:10:13;100804.63;;;6.09;100.00
77159;BME280;66129;45.890;13.714;2023-12-20T11:12:48;100809.66;;;6.29;100.00
77159;BME280;66129;45.890;13.714;2023-12-20T11:15:15;100795.63;;;6.40;100.00
77159;BME280;66129;45.890;13.714;2023-12-20T11:17:44;100794.06;;;6.44;100.00
77159;BME280;66129;45.890;13.714;2023-12-20T11:20:10;100805.22;;;6.47;100.00
77159;BME280;66129;45.890;13.714;2023-12-20T11:22:37;100799.31;;;6.48;100.00
77159;BME280;66129;45.890;13.714;2023-12-20T11:25:06;100789.06;;;6.47;100.00
77159;BME280;66129;45.890;13.714;2023-12-20T11:27:35;100788.25;;;6.48;100.00
77159;BME280;66129;45.890;13.714;2023-12-20T11:30:02;100778.13;;;6.49;100.00
77159;BME280;66129;45.890;13.714;2023-12-20T11:32:32;100769.56;;;6.47;100.00
77159;BME280;66129;45.890;13.714;2023-12-20T11:35:00;100765.41;;;6.49;100.00
77159;BME280;66129;45.890;13.714;2023-12-20T11:37:30;100761.13;;;6.48;100.00
77159;BME280;66129;45.890;13.714;2023-12-20T11:42:41;100749.91;;;6.43;100.00
77159;BME280;66129;45.890;13.714;2023-12-20T11:45:11;100757.75;;;6.49;100.00
77159;BME280;66129;45.890;13.714;2023-12-20T11:47:37;100759.59;;;6.53;100.00
77159;BME280;66129;45.890;13.714;2023-12-20T11:50:03;100761.44;;;6.57;100.00
77159;BME280;66129;45.890;13.714;2023-12-20T11:52:30;100757.53;;;6.66;100.00
77159;BME280;66129;45.890;13.714;2023-12-20T11:54:57;100746.41;;;6.88;100.00
77159;BME280;66129;45.890;13.714;2023-12-20T11:57:22;100751.84;;;6.98;100.00
77159;BME280;66129;45.890;13.714;2023-12-20T11:59:48;100757.91;;;7.02;100.00
77159;BME280;66129;45.890;13.714;2023-12-20T12:02:14;100755.31;;;7.00;100.00
77159;BME280;66129;45.890;13.714;2023-12-20T12:04:41;100748.63;;;7.04;100.00
77159;BME280;66129;45.890;13.714;2023-12-20T12:07:07;100745.69;;;7.17;100.00
77159;BME280;66129;45.890;13.714;2023-12-20T12:09:32;100743.56;;;7.30;100.00
77159;BME280;66129;45.890;13.714;2023-12-20T12:11:58;100748.91;;;7.38;100.00
77159;BME280;66129;45.890;13.714;2023-12-20T12:14:24;100737.19;;;7.43;100.00
77159;BME280;66129;45.890;13.714;2023-12-20T12:16:50;100734.75;;;7.47;100.00
77159;BME280;66129;45.890;13.714;2023-12-20T12:19:23;100726.63;;;7.59;100.00
77159;BME280;66129;45.890;13.714;2023-12-20T12:21:50;100733.03;;;7.74;100.00
77159;BME280;66129;45.890;13.714;2023-12-20T12:24:20;100729.84;;;7.79;100.00
77159;BME280;66129;45.890;13.714;2023-12-20T12:26:53;100725.16;;;7.94;100.00
77159;BME280;66129;45.890;13.714;2023-12-20T12:29:18;100723.44;;;7.93;100.00
77159;BME280;66129;45.890;13.714;2023-12-20T12:31:44;100735.28;;;7.91;100.00
77159;BME280;66129;45.890;13.714;2023-12-20T12:34:09;100725.16;;;7.94;100.00